Aérodrome :
LOGIN :

S'inscrire | Disclaimer

   EN    FR    IT 

 










Légende :    VFR   VFR Marginal   IFR   IFR Intensif   IFR Très Intensif
Visi : 
Plafond : 
>= 8 km
>= 3000ft
5 à 8 km
1000 à 3000 ft
1500m à 5 km
500 à 1000 ft
800 à 1500m
200 à 500 ft
< 800m
< 200 ft
Symboles :   Orages  Brouillard  Fortes neiges  Fortes précipitations  Vent > 20 kt
SIGMETs :   Divers  Orages  Givrage  Turbulence  Onde Orograph.  Cendres Volcan.






- Altitude de l'aérodrome : 124 ft
- Code IATA : NHT


EGWU - RAF Northolt

DERNIER METAR :
  • 242120Z 29012KT 9999 FEW045 BKN250 08/05 Q1005 NOSIG RMK BLU BLU

METARs EXPIRÉS :
  • 242050Z 27015KT 9999 FEW021 BKN045 BKN250 09/06 Q1005 NOSIG RMK BLU BLU
  • 242020Z 27015KT 9999 SCT021 BKN240 09/06 Q1005 BECMG FEW021 SCT040
  • 241950Z 26015KT 9999 FEW024 BKN240 10/06 Q1005 NOSIG RMK BLU BLU
  • 241920Z 26015KT 9999 FEW022 BKN230 10/06 Q1004 NOSIG RMK BLU BLU
  • 241850Z 26016G26KT 9999 SCT040 BKN220 11/06 Q1004 NOSIG

TAF TAF EGWU
Valide du 24 à 21h jusqu'au 25 à 15h UTC


241929Z 2421/2515 26012KT 9999 SCT040
PROB40
TEMPO 2507/2510 -SHRA SCT014
PROB30
TEMPO 2510/2515 27015G25KT -SHRA SCT020



MET'MAP, la Météo Aéronautique d'un coup d'oeil ! - Copyright ORBIFLY Décembre 2007 - Disclaimer

ORBIFLY MET'MAP TEAM :

Programmation & Développement : Alexandra Zaïnal
Sur une idée originale de : Baudouin d'Aumeries
Assistance à la programmation : Marc-Olivier Méhu
Soutien technique & logistique : Manuel Goepfert

Contact : metmap@orbifly.com




SOURCES & CREDITS :

   NOAA